sensor_id;sensor_type;location;lat;lon;timestamp;temperature;humidity
30300;DHT22;17110;52.602;12.998;2023-08-08T00:01:51;13.80;99.90
30300;DHT22;17110;52.602;12.998;2023-08-08T00:04:18;13.70;99.90
30300;DHT22;17110;52.602;12.998;2023-08-08T00:06:43;13.80;99.90
30300;DHT22;17110;52.602;12.998;2023-08-08T00:09:09;13.80;99.90
30300;DHT22;17110;52.602;12.998;2023-08-08T00:11:35;13.70;99.90
30300;DHT22;17110;52.602;12.998;2023-08-08T00:14:00;13.70;99.90
30300;DHT22;17110;52.602;12.998;2023-08-08T00:16:26;13.70;99.90
30300;DHT22;17110;52.602;12.998;2023-08-08T00:18:52;13.70;99.90
30300;DHT22;17110;52.602;12.998;2023-08-08T00:21:19;13.70;99.90
30300;DHT22;17110;52.602;12.998;2023-08-08T00:23:44;13.60;99.90
30300;DHT22;17110;52.602;12.998;2023-08-08T00:26:10;13.70;99.90
30300;DHT22;17110;52.602;12.998;2023-08-08T00:28:35;13.60;99.90
30300;DHT22;17110;52.602;12.998;2023-08-08T00:31:01;13.60;99.90
30300;DHT22;17110;52.602;12.998;2023-08-08T00:33:27;13.60;99.90
30300;DHT22;17110;52.602;12.998;2023-08-08T00:35:52;13.50;99.90
30300;DHT22;17110;52.602;12.998;2023-08-08T00:38:19;13.50;99.90
30300;DHT22;17110;52.602;12.998;2023-08-08T00:40:45;13.40;99.90
30300;DHT22;17110;52.602;12.998;2023-08-08T00:43:11;13.40;99.90
30300;DHT22;17110;52.602;12.998;2023-08-08T00:45:38;13.30;99.90
30300;DHT22;17110;52.602;12.998;2023-08-08T00:48:05;13.30;99.90
30300;DHT22;17110;52.602;12.998;2023-08-08T00:50:31;13.30;99.90
30300;DHT22;17110;52.602;12.998;2023-08-08T00:53:00;13.30;99.90
30300;DHT22;17110;52.602;12.998;2023-08-08T00:55:27;13.30;99.90
30300;DHT22;17110;52.602;12.998;2023-08-08T00:57:53;13.20;99.90
30300;DHT22;17110;52.602;12.998;2023-08-08T01:00:18;13.10;99.90
30300;DHT22;17110;52.602;12.998;2023-08-08T01:02:44;13.10;99.90
30300;DHT22;17110;52.602;12.998;2023-08-08T01:05:10;13.10;99.90
30300;DHT22;17110;52.602;12.998;2023-08-08T01:07:41;13.00;99.90
30300;DHT22;17110;52.602;12.998;2023-08-08T01:10:10;13.00;99.90
30300;DHT22;17110;52.602;12.998;2023-08-08T01:12:41;13.00;99.90
30300;DHT22;17110;52.602;12.998;2023-08-08T01:15:10;13.00;99.90
30300;DHT22;17110;52.602;12.998;2023-08-08T01:17:37;13.00;99.90
30300;DHT22;17110;52.602;12.998;2023-08-08T01:20:05;13.00;99.90
30300;DHT22;17110;52.602;12.998;2023-08-08T01:22:36;13.00;99.90
30300;DHT22;17110;52.602;12.998;2023-08-08T01:25:05;13.00;99.90
30300;DHT22;17110;52.602;12.998;2023-08-08T01:27:32;13.10;99.90
30300;DHT22;17110;52.602;12.998;2023-08-08T01:29:57;13.10;99.90
30300;DHT22;17110;52.602;12.998;2023-08-08T01:32:23;13.10;99.90
30300;DHT22;17110;52.602;12.998;2023-08-08T01:34:49;13.10;99.90
30300;DHT22;17110;52.602;12.998;2023-08-08T01:37:18;13.20;99.90
30300;DHT22;17110;52.602;12.998;2023-08-08T01:39:46;13.30;99.90
30300;DHT22;17110;52.602;12.998;2023-08-08T01:42:13;13.40;99.90
30300;DHT22;17110;52.602;12.998;2023-08-08T01:44:41;13.30;99.90
30300;DHT22;17110;52.602;12.998;2023-08-08T01:47:07;13.30;99.90
30300;DHT22;17110;52.602;12.998;2023-08-08T01:49:33;13.30;99.90
30300;DHT22;17110;52.602;12.998;2023-08-08T01:51:59;13.30;99.90
30300;DHT22;17110;52.602;12.998;2023-08-08T01:54:25;13.40;99.90
30300;DHT22;17110;52.602;12.998;2023-08-08T01:56:50;13.30;99.90
30300;DHT22;17110;52.602;12.998;2023-08-08T01:59:17;13.30;99.90
30300;DHT22;17110;52.602;12.998;2023-08-08T02:01:43;13.30;99.90
30300;DHT22;17110;52.602;12.998;2023-08-08T02:04:09;13.30;99.90
30300;DHT22;17110;52.602;12.998;2023-08-08T02:06:35;13.40;99.90
30300;DHT22;17110;52.602;12.998;2023-08-08T02:09:01;13.40;99.90
30300;DHT22;17110;52.602;12.998;2023-08-08T02:11:26;13.40;99.90
30300;DHT22;17110;52.602;12.998;2023-08-08T02:13:53;13.30;99.90
30300;DHT22;17110;52.602;12.998;2023-08-08T02:16:20;13.30;99.90
30300;DHT22;17110;52.602;12.998;2023-08-08T02:18:45;13.30;99.90
30300;DHT22;17110;52.602;12.998;2023-08-08T02:21:11;13.20;99.90
30300;DHT22;17110;52.602;12.998;2023-08-08T02:23:37;13.10;99.90
30300;DHT22;17110;52.602;12.998;2023-08-08T02:26:02;13.10;99.90
30300;DHT22;17110;52.602;12.998;2023-08-08T02:28:28;13.00;99.90
30300;DHT22;17110;52.602;12.998;2023-08-08T02:30:54;13.00;99.90
30300;DHT22;17110;52.602;12.998;2023-08-08T02:33:21;12.90;99.90
30300;DHT22;17110;52.602;12.998;2023-08-08T02:35:46;12.90;99.90
30300;DHT22;17110;52.602;12.998;2023-08-08T02:38:13;12.90;99.90
30300;DHT22;17110;52.602;12.998;2023-08-08T02:40:40;12.90;99.90
30300;DHT22;17110;52.602;12.998;2023-08-08T02:43:06;12.90;99.90
30300;DHT22;17110;52.602;12.998;2023-08-08T02:45:32;12.80;99.90
30300;DHT22;17110;52.602;12.998;2023-08-08T02:47:58;12.90;99.90
30300;DHT22;17110;52.602;12.998;2023-08-08T02:50:25;12.80;99.90
30300;DHT22;17110;52.602;12.998;2023-08-08T02:52:52;12.70;99.90
30300;DHT22;17110;52.602;12.998;2023-08-08T02:55:20;12.80;99.90
30300;DHT22;17110;52.602;12.998;2023-08-08T02:57:49;12.80;99.90
30300;DHT22;17110;52.602;12.998;2023-08-08T03:00:15;12.80;99.90
30300;DHT22;17110;52.602;12.998;2023-08-08T03:02:43;12.80;99.90
30300;DHT22;17110;52.602;12.998;2023-08-08T03:05:09;12.90;99.90
30300;DHT22;17110;52.602;12.998;2023-08-08T03:07:36;12.90;99.90
30300;DHT22;17110;52.602;12.998;2023-08-08T03:10:02;12.90;99.90
30300;DHT22;17110;52.602;12.998;2023-08-08T03:12:30;12.80;99.90
30300;DHT22;17110;52.602;12.998;2023-08-08T03:14:56;12.80;99.90
30300;DHT22;17110;52.602;12.998;2023-08-08T03:17:22;12.80;99.90
30300;DHT22;17110;52.602;12.998;2023-08-08T03:19:48;12.80;99.90
30300;DHT22;17110;52.602;12.998;2023-08-08T03:22:14;12.80;99.90
30300;DHT22;17110;52.602;12.998;2023-08-08T03:24:42;12.70;99.90
30300;DHT22;17110;52.602;12.998;2023-08-08T03:27:08;12.80;99.90
30300;DHT22;17110;52.602;12.998;2023-08-08T03:29:34;12.70;99.90
30300;DHT22;17110;52.602;12.998;2023-08-08T03:31:59;12.70;99.90
30300;DHT22;17110;52.602;12.998;2023-08-08T03:34:28;12.70;99.90
30300;DHT22;17110;52.602;12.998;2023-08-08T03:36:55;12.70;99.90
30300;DHT22;17110;52.602;12.998;2023-08-08T03:39:21;12.70;99.90
30300;DHT22;17110;52.602;12.998;2023-08-08T03:41:48;12.70;99.90
30300;DHT22;17110;52.602;12.998;2023-08-08T03:44:14;12.70;99.90
30300;DHT22;17110;52.602;12.998;2023-08-08T03:46:40;12.80;99.90
30300;DHT22;17110;52.602;12.998;2023-08-08T03:49:06;12.80;99.90
30300;DHT22;17110;52.602;12.998;2023-08-08T03:51:31;12.80;99.90
30300;DHT22;17110;52.602;12.998;2023-08-08T03:53:57;12.80;99.90
30300;DHT22;17110;52.602;12.998;2023-08-08T03:56:23;12.80;99.90
30300;DHT22;17110;52.602;12.998;2023-08-08T03:58:50;12.80;99.90
30300;DHT22;17110;52.602;12.998;2023-08-08T04:01:15;12.90;99.90
30300;DHT22;17110;52.602;12.998;2023-08-08T04:03:41;12.90;99.90
30300;DHT22;17110;52.602;12.998;2023-08-08T04:06:07;12.80;99.90
30300;DHT22;17110;52.602;12.998;2023-08-08T04:08:33;12.90;99.90
30300;DHT22;17110;52.602;12.998;2023-08-08T04:11:01;12.80;99.90
30300;DHT22;17110;52.602;12.998;2023-08-08T04:13:28;12.80;99.90
30300;DHT22;17110;52.602;12.998;2023-08-08T04:15:55;12.80;99.90
30300;DHT22;17110;52.602;12.998;2023-08-08T04:18:21;12.90;99.90
30300;DHT22;17110;52.602;12.998;2023-08-08T04:20:46;12.90;99.90
30300;DHT22;17110;52.602;12.998;2023-08-08T04:23:12;13.00;99.90
30300;DHT22;17110;52.602;12.998;2023-08-08T04:25:38;13.00;99.90
30300;DHT22;17110;52.602;12.998;2023-08-08T04:28:04;13.10;99.90
30300;DHT22;17110;52.602;12.998;2023-08-08T04:30:29;13.20;99.90
30300;DHT22;17110;52.602;12.998;2023-08-08T04:32:56;13.30;99.90
30300;DHT22;17110;52.602;12.998;2023-08-08T04:35:22;13.40;99.90
30300;DHT22;17110;52.602;12.998;2023-08-08T04:37:48;13.40;99.90
30300;DHT22;17110;52.602;12.998;2023-08-08T04:40:13;13.40;99.90
30300;DHT22;17110;52.602;12.998;2023-08-08T04:42:40;13.30;99.90
30300;DHT22;17110;52.602;12.998;2023-08-08T04:45:07;13.30;99.90
30300;DHT22;17110;52.602;12.998;2023-08-08T04:47:32;13.30;99.90
30300;DHT22;17110;52.602;12.998;2023-08-08T04:49:59;13.30;99.90
30300;DHT22;17110;52.602;12.998;2023-08-08T04:52:25;13.40;99.90
30300;DHT22;17110;52.602;12.998;2023-08-08T04:54:51;13.70;99.90
30300;DHT22;17110;52.602;12.998;2023-08-08T04:57:16;14.00;99.90
30300;DHT22;17110;52.602;12.998;2023-08-08T04:59:42;14.10;99.90
30300;DHT22;17110;52.602;12.998;2023-08-08T05:02:08;14.80;99.90
30300;DHT22;17110;52.602;12.998;2023-08-08T05:04:33;15.20;99.90
30300;DHT22;17110;52.602;12.998;2023-08-08T05:07:00;15.40;99.90
30300;DHT22;17110;52.602;12.998;2023-08-08T05:09:26;16.00;99.90
30300;DHT22;17110;52.602;12.998;2023-08-08T05:11:51;16.10;99.90
30300;DHT22;17110;52.602;12.998;2023-08-08T05:14:20;16.10;99.90
30300;DHT22;17110;52.602;12.998;2023-08-08T05:16:49;15.90;99.90
30300;DHT22;17110;52.602;12.998;2023-08-08T05:19:14;15.60;99.90
30300;DHT22;17110;52.602;12.998;2023-08-08T05:21:40;16.10;99.90
30300;DHT22;17110;52.602;12.998;2023-08-08T05:24:07;16.80;99.90
30300;DHT22;17110;52.602;12.998;2023-08-08T05:26:33;17.30;99.90
30300;DHT22;17110;52.602;12.998;2023-08-08T05:28:58;18.40;99.90
30300;DHT22;17110;52.602;12.998;2023-08-08T05:31:24;18.70;99.90
30300;DHT22;17110;52.602;12.998;2023-08-08T05:33:50;18.50;99.90
30300;DHT22;17110;52.602;12.998;2023-08-08T05:36:15;17.50;99.90
30300;DHT22;17110;52.602;12.998;2023-08-08T05:38:41;16.70;99.90
30300;DHT22;17110;52.602;12.998;2023-08-08T05:41:08;16.20;99.90
30300;DHT22;17110;52.602;12.998;2023-08-08T05:43:33;15.70;99.90
30300;DHT22;17110;52.602;12.998;2023-08-08T05:45:59;15.40;99.90
30300;DHT22;17110;52.602;12.998;2023-08-08T05:48:28;15.20;99.90
30300;DHT22;17110;52.602;12.998;2023-08-08T05:50:54;15.10;99.90
30300;DHT22;17110;52.602;12.998;2023-08-08T05:53:19;15.20;99.90
30300;DHT22;17110;52.602;12.998;2023-08-08T05:55:45;15.20;99.90
30300;DHT22;17110;52.602;12.998;2023-08-08T05:58:12;16.10;99.90
30300;DHT22;17110;52.602;12.998;2023-08-08T06:00:39;16.50;99.90
30300;DHT22;17110;52.602;12.998;2023-08-08T06:03:05;16.20;99.90
30300;DHT22;17110;52.602;12.998;2023-08-08T06:05:30;16.00;99.90
30300;DHT22;17110;52.602;12.998;2023-08-08T06:07:59;15.80;99.90
30300;DHT22;17110;52.602;12.998;2023-08-08T06:10:25;15.70;99.90
30300;DHT22;17110;52.602;12.998;2023-08-08T06:12:50;16.00;99.90
30300;DHT22;17110;52.602;12.998;2023-08-08T06:15:18;16.80;99.90
30300;DHT22;17110;52.602;12.998;2023-08-08T06:17:43;18.00;99.90
30300;DHT22;17110;52.602;12.998;2023-08-08T06:20:09;18.60;99.90
30300;DHT22;17110;52.602;12.998;2023-08-08T06:22:35;18.50;99.90
30300;DHT22;17110;52.602;12.998;2023-08-08T06:25:00;17.80;99.90
30300;DHT22;17110;52.602;12.998;2023-08-08T06:27:26;16.90;99.90
30300;DHT22;17110;52.602;12.998;2023-08-08T06:29:52;16.30;99.90
30300;DHT22;17110;52.602;12.998;2023-08-08T06:32:19;16.00;99.90
30300;DHT22;17110;52.602;12.998;2023-08-08T06:34:45;15.70;99.90
30300;DHT22;17110;52.602;12.998;2023-08-08T06:37:10;15.70;99.90
30300;DHT22;17110;52.602;12.998;2023-08-08T06:39:36;15.60;99.90
30300;DHT22;17110;52.602;12.998;2023-08-08T06:42:02;15.60;99.90
30300;DHT22;17110;52.602;12.998;2023-08-08T06:44:41;15.80;99.90
30300;DHT22;17110;52.602;12.998;2023-08-08T06:47:07;16.20;99.90
30300;DHT22;17110;52.602;12.998;2023-08-08T06:49:34;16.90;99.90
30300;DHT22;17110;52.602;12.998;2023-08-08T06:52:00;17.10;99.90
30300;DHT22;17110;52.602;12.998;2023-08-08T06:54:26;17.10;99.90
30300;DHT22;17110;52.602;12.998;2023-08-08T06:56:51;16.70;99.90
30300;DHT22;17110;52.602;12.998;2023-08-08T06:59:17;16.60;99.90
30300;DHT22;17110;52.602;12.998;2023-08-08T07:01:43;16.50;99.90
30300;DHT22;17110;52.602;12.998;2023-08-08T07:04:08;16.60;99.90
30300;DHT22;17110;52.602;12.998;2023-08-08T07:06:35;16.60;99.90
30300;DHT22;17110;52.602;12.998;2023-08-08T07:09:01;16.70;99.90
30300;DHT22;17110;52.602;12.998;2023-08-08T07:11:27;17.40;99.90
30300;DHT22;17110;52.602;12.998;2023-08-08T07:13:52;18.80;99.90
30300;DHT22;17110;52.602;12.998;2023-08-08T07:16:18;20.00;99.90
30300;DHT22;17110;52.602;12.998;2023-08-08T07:18:43;19.70;99.90
30300;DHT22;17110;52.602;12.998;2023-08-08T07:21:09;18.60;99.90
30300;DHT22;17110;52.602;12.998;2023-08-08T07:23:36;18.10;99.90
30300;DHT22;17110;52.602;12.998;2023-08-08T07:26:02;18.10;99.90
30300;DHT22;17110;52.602;12.998;2023-08-08T07:28:27;18.10;99.90
30300;DHT22;17110;52.602;12.998;2023-08-08T07:30:53;18.00;99.90
30300;DHT22;17110;52.602;12.998;2023-08-08T07:33:19;18.40;99.90
30300;DHT22;17110;52.602;12.998;2023-08-08T07:35:44;18.20;99.90
30300;DHT22;17110;52.602;12.998;2023-08-08T07:38:10;18.00;99.90
30300;DHT22;17110;52.602;12.998;2023-08-08T07:40:37;18.00;99.90
30300;DHT22;17110;52.602;12.998;2023-08-08T07:43:03;18.10;99.90
30300;DHT22;17110;52.602;12.998;2023-08-08T07:45:28;18.00;99.90
30300;DHT22;17110;52.602;12.998;2023-08-08T07:47:54;18.20;99.90
30300;DHT22;17110;52.602;12.998;2023-08-08T07:50:19;18.60;99.90
30300;DHT22;17110;52.602;12.998;2023-08-08T07:52:45;18.60;99.90
30300;DHT22;17110;52.602;12.998;2023-08-08T07:55:11;18.50;99.90
30300;DHT22;17110;52.602;12.998;2023-08-08T07:57:38;18.90;99.90
30300;DHT22;17110;52.602;12.998;2023-08-08T08:00:04;19.10;99.90
30300;DHT22;17110;52.602;12.998;2023-08-08T08:02:37;19.10;99.90
30300;DHT22;17110;52.602;12.998;2023-08-08T08:05:04;18.90;99.90
30300;DHT22;17110;52.602;12.998;2023-08-08T08:07:30;19.10;99.90
30300;DHT22;17110;52.602;12.998;2023-08-08T08:09:55;19.20;99.90
30300;DHT22;17110;52.602;12.998;2023-08-08T08:12:21;19.10;99.90
30300;DHT22;17110;52.602;12.998;2023-08-08T08:14:48;19.10;99.90
30300;DHT22;17110;52.602;12.998;2023-08-08T08:17:14;18.80;99.90
30300;DHT22;17110;52.602;12.998;2023-08-08T08:19:39;18.70;99.90
30300;DHT22;17110;52.602;12.998;2023-08-08T08:22:05;18.90;99.90
30300;DHT22;17110;52.602;12.998;2023-08-08T08:24:31;18.90;99.90
30300;DHT22;17110;52.602;12.998;2023-08-08T08:26:56;19.10;99.90
30300;DHT22;17110;52.602;12.998;2023-08-08T08:29:22;19.30;99.90
30300;DHT22;17110;52.602;12.998;2023-08-08T08:31:49;18.80;99.90
30300;DHT22;17110;52.602;12.998;2023-08-08T08:34:14;18.80;99.90
30300;DHT22;17110;52.602;12.998;2023-08-08T08:36:40;19.00;99.90
30300;DHT22;17110;52.602;12.998;2023-08-08T08:39:06;19.30;99.90
30300;DHT22;17110;52.602;12.998;2023-08-08T08:41:32;19.50;99.90
30300;DHT22;17110;52.602;12.998;2023-08-08T08:44:00;19.40;99.90
30300;DHT22;17110;52.602;12.998;2023-08-08T08:46:26;19.50;99.90
30300;DHT22;17110;52.602;12.998;2023-08-08T08:48:54;19.80;99.90
30300;DHT22;17110;52.602;12.998;2023-08-08T08:51:20;20.30;99.90
30300;DHT22;17110;52.602;12.998;2023-08-08T08:53:46;20.30;99.90
30300;DHT22;17110;52.602;12.998;2023-08-08T08:56:12;20.40;99.90
30300;DHT22;17110;52.602;12.998;2023-08-08T08:58:38;20.50;99.90
30300;DHT22;17110;52.602;12.998;2023-08-08T09:01:04;20.50;99.90
30300;DHT22;17110;52.602;12.998;2023-08-08T09:03:30;20.30;99.90
30300;DHT22;17110;52.602;12.998;2023-08-08T09:05:58;19.90;99.90
30300;DHT22;17110;52.602;12.998;2023-08-08T09:08:24;19.50;99.90
30300;DHT22;17110;52.602;12.998;2023-08-08T09:10:50;19.50;99.90
30300;DHT22;17110;52.602;12.998;2023-08-08T09:13:15;19.40;99.90
30300;DHT22;17110;52.602;12.998;2023-08-08T09:15:41;19.60;99.90
30300;DHT22;17110;52.602;12.998;2023-08-08T09:18:07;19.60;99.90
30300;DHT22;17110;52.602;12.998;2023-08-08T09:20:33;19.60;99.90
30300;DHT22;17110;52.602;12.998;2023-08-08T09:23:00;20.10;99.90
30300;DHT22;17110;52.602;12.998;2023-08-08T09:25:26;20.70;99.90
30300;DHT22;17110;52.602;12.998;2023-08-08T09:27:52;20.60;99.90
30300;DHT22;17110;52.602;12.998;2023-08-08T09:30:19;20.50;99.90
30300;DHT22;17110;52.602;12.998;2023-08-08T09:32:45;20.40;99.90
30300;DHT22;17110;52.602;12.998;2023-08-08T09:35:10;20.20;99.90
30300;DHT22;17110;52.602;12.998;2023-08-08T09:37:36;19.60;99.90
30300;DHT22;17110;52.602;12.998;2023-08-08T09:40:06;19.20;99.90
30300;DHT22;17110;52.602;12.998;2023-08-08T09:42:32;19.60;99.90
30300;DHT22;17110;52.602;12.998;2023-08-08T09:44:58;20.20;99.90
30300;DHT22;17110;52.602;12.998;2023-08-08T09:47:24;21.00;99.90
30300;DHT22;17110;52.602;12.998;2023-08-08T09:49:50;21.10;99.90
30300;DHT22;17110;52.602;12.998;2023-08-08T09:52:16;21.20;99.90
30300;DHT22;17110;52.602;12.998;2023-08-08T09:54:42;21.00;99.90
30300;DHT22;17110;52.602;12.998;2023-08-08T09:57:09;21.00;99.90
30300;DHT22;17110;52.602;12.998;2023-08-08T09:59:35;21.20;99.90
30300;DHT22;17110;52.602;12.998;2023-08-08T10:02:02;21.70;99.90
30300;DHT22;17110;52.602;12.998;2023-08-08T10:04:28;21.50;99.90
30300;DHT22;17110;52.602;12.998;2023-08-08T10:06:53;22.00;99.90
30300;DHT22;17110;52.602;12.998;2023-08-08T10:09:19;22.00;99.90
30300;DHT22;17110;52.602;12.998;2023-08-08T10:11:46;21.80;99.90
30300;DHT22;17110;52.602;12.998;2023-08-08T10:14:17;21.40;99.90
30300;DHT22;17110;52.602;12.998;2023-08-08T10:16:47;21.00;99.90
30300;DHT22;17110;52.602;12.998;2023-08-08T10:19:14;20.40;99.90
30300;DHT22;17110;52.602;12.998;2023-08-08T10:22:05;19.90;99.90
30300;DHT22;17110;52.602;12.998;2023-08-08T10:24:33;18.80;99.90
30300;DHT22;17110;52.602;12.998;2023-08-08T10:27:02;18.10;99.90
30300;DHT22;17110;52.602;12.998;2023-08-08T10:29:31;17.70;99.90
30300;DHT22;17110;52.602;12.998;2023-08-08T10:31:59;17.30;99.90
30300;DHT22;17110;52.602;12.998;2023-08-08T10:34:35;17.60;99.90
30300;DHT22;17110;52.602;12.998;2023-08-08T10:37:04;17.80;99.90
30300;DHT22;17110;52.602;12.998;2023-08-08T10:39:33;18.20;99.90
30300;DHT22;17110;52.602;12.998;2023-08-08T10:42:04;18.40;99.90
30300;DHT22;17110;52.602;12.998;2023-08-08T10:44:40;18.60;99.90
30300;DHT22;17110;52.602;12.998;2023-08-08T10:47:06;19.20;99.90
30300;DHT22;17110;52.602;12.998;2023-08-08T10:49:32;19.20;99.90
30300;DHT22;17110;52.602;12.998;2023-08-08T10:52:04;19.20;99.90
30300;DHT22;17110;52.602;12.998;2023-08-08T10:54:32;19.20;99.90
30300;DHT22;17110;52.602;12.998;2023-08-08T10:56:59;19.50;99.90
30300;DHT22;17110;52.602;12.998;2023-08-08T10:59:26;19.90;99.90
30300;DHT22;17110;52.602;12.998;2023-08-08T11:01:53;20.30;99.90
30300;DHT22;17110;52.602;12.998;2023-08-08T11:04:21;20.80;99.90
30300;DHT22;17110;52.602;12.998;2023-08-08T11:06:47;21.40;99.90
30300;DHT22;17110;52.602;12.998;2023-08-08T11:09:14;21.50;99.90
30300;DHT22;17110;52.602;12.998;2023-08-08T11:11:41;21.30;99.90
30300;DHT22;17110;52.602;12.998;2023-08-08T11:14:14;21.10;99.90
30300;DHT22;17110;52.602;12.998;2023-08-08T11:16:40;20.90;99.90
30300;DHT22;17110;52.602;12.998;2023-08-08T11:19:09;21.00;99.90
30300;DHT22;17110;52.602;12.998;2023-08-08T11:21:36;20.70;99.90
30300;DHT22;17110;52.602;12.998;2023-08-08T11:24:02;20.70;99.90
30300;DHT22;17110;52.602;12.998;2023-08-08T11:26:28;20.70;99.90
30300;DHT22;17110;52.602;12.998;2023-08-08T11:28:53;20.90;99.90
30300;DHT22;17110;52.602;12.998;2023-08-08T11:31:22;21.00;99.90
30300;DHT22;17110;52.602;12.998;2023-08-08T11:33:49;21.30;99.90
30300;DHT22;17110;52.602;12.998;2023-08-08T11:36:19;21.40;99.90
30300;DHT22;17110;52.602;12.998;2023-08-08T11:38:46;21.50;99.90
30300;DHT22;17110;52.602;12.998;2023-08-08T11:41:14;21.50;99.90
30300;DHT22;17110;52.602;12.998;2023-08-08T11:43:40;21.70;99.90
30300;DHT22;17110;52.602;12.998;2023-08-08T11:46:12;22.00;99.90
30300;DHT22;17110;52.602;12.998;2023-08-08T11:48:39;21.90;99.90
30300;DHT22;17110;52.602;12.998;2023-08-08T11:51:08;21.50;99.90
30300;DHT22;17110;52.602;12.998;2023-08-08T11:53:36;21.90;99.90
30300;DHT22;17110;52.602;12.998;2023-08-08T11:56:02;22.60;99.90
30300;DHT22;17110;52.602;12.998;2023-08-08T11:58:29;22.70;99.90
30300;DHT22;17110;52.602;12.998;2023-08-08T12:00:56;21.90;99.90
30300;DHT22;17110;52.602;12.998;2023-08-08T12:03:22;21.50;99.90
30300;DHT22;17110;52.602;12.998;2023-08-08T12:05:51;21.20;99.90
30300;DHT22;17110;52.602;12.998;2023-08-08T12:08:17;21.20;99.90
30300;DHT22;17110;52.602;12.998;2023-08-08T12:10:49;21.30;99.90
30300;DHT22;17110;52.602;12.998;2023-08-08T12:13:14;21.70;99.90
30300;DHT22;17110;52.602;12.998;2023-08-08T12:15:42;22.10;99.90
30300;DHT22;17110;52.602;12.998;2023-08-08T12:18:08;22.70;99.90
30300;DHT22;17110;52.602;12.998;2023-08-08T12:20:33;23.00;99.90
30300;DHT22;17110;52.602;12.998;2023-08-08T12:22:59;22.80;99.90
30300;DHT22;17110;52.602;12.998;2023-08-08T12:25:25;22.70;99.90
30300;DHT22;17110;52.602;12.998;2023-08-08T12:27:52;21.80;99.90
30300;DHT22;17110;52.602;12.998;2023-08-08T12:30:18;21.50;99.90
30300;DHT22;17110;52.602;12.998;2023-08-08T12:32:43;20.70;99.90
30300;DHT22;17110;52.602;12.998;2023-08-08T12:35:09;20.20;99.90
30300;DHT22;17110;52.602;12.998;2023-08-08T12:37:35;19.70;99.90
30300;DHT22;17110;52.602;12.998;2023-08-08T12:40:00;19.10;99.90
30300;DHT22;17110;52.602;12.998;2023-08-08T12:42:26;18.60;99.90
30300;DHT22;17110;52.602;12.998;2023-08-08T12:44:53;18.20;99.90
30300;DHT22;17110;52.602;12.998;2023-08-08T12:47:19;17.90;99.90
30300;DHT22;17110;52.602;12.998;2023-08-08T12:49:45;18.40;99.90
30300;DHT22;17110;52.602;12.998;2023-08-08T12:52:10;19.30;99.90
30300;DHT22;17110;52.602;12.998;2023-08-08T12:54:36;19.70;99.90
30300;DHT22;17110;52.602;12.998;2023-08-08T12:57:02;20.10;99.90
30300;DHT22;17110;52.602;12.998;2023-08-08T12:59:28;20.20;99.90
30300;DHT22;17110;52.602;12.998;2023-08-08T13:01:55;19.90;99.90
30300;DHT22;17110;52.602;12.998;2023-08-08T13:04:20;20.00;99.90
30300;DHT22;17110;52.602;12.998;2023-08-08T13:06:47;20.00;99.90
30300;DHT22;17110;52.602;12.998;2023-08-08T13:09:12;20.00;99.90
30300;DHT22;17110;52.602;12.998;2023-08-08T13:11:38;19.90;99.90
30300;DHT22;17110;52.602;12.998;2023-08-08T13:14:04;20.00;99.90
30300;DHT22;17110;52.602;12.998;2023-08-08T13:16:29;20.10;99.90
30300;DHT22;17110;52.602;12.998;2023-08-08T13:18:56;20.00;99.90
30300;DHT22;17110;52.602;12.998;2023-08-08T13:21:22;19.90;99.90
30300;DHT22;17110;52.602;12.998;2023-08-08T13:23:48;19.70;99.90
30300;DHT22;17110;52.602;12.998;2023-08-08T13:26:13;19.60;99.90
30300;DHT22;17110;52.602;12.998;2023-08-08T13:28:39;19.50;99.90
30300;DHT22;17110;52.602;12.998;2023-08-08T13:31:05;19.20;99.90
30300;DHT22;17110;52.602;12.998;2023-08-08T13:33:30;19.00;99.90
30300;DHT22;17110;52.602;12.998;2023-08-08T13:35:57;19.10;99.90
30300;DHT22;17110;52.602;12.998;2023-08-08T13:38:23;19.30;99.90
30300;DHT22;17110;52.602;12.998;2023-08-08T13:40:49;19.60;99.90
30300;DHT22;17110;52.602;12.998;2023-08-08T13:43:14;19.80;99.90
30300;DHT22;17110;52.602;12.998;2023-08-08T13:45:40;20.00;99.90
30300;DHT22;17110;52.602;12.998;2023-08-08T13:48:06;20.50;99.90
30300;DHT22;17110;52.602;12.998;2023-08-08T13:50:31;20.60;99.90
30300;DHT22;17110;52.602;12.998;2023-08-08T13:52:58;20.80;99.90
30300;DHT22;17110;52.602;12.998;2023-08-08T13:55:24;20.90;99.90
30300;DHT22;17110;52.602;12.998;2023-08-08T13:57:50;21.00;99.90
30300;DHT22;17110;52.602;12.998;2023-08-08T14:00:16;21.00;99.90
30300;DHT22;17110;52.602;12.998;2023-08-08T14:02:41;20.80;99.90
30300;DHT22;17110;52.602;12.998;2023-08-08T14:05:07;20.80;99.90
30300;DHT22;17110;52.602;12.998;2023-08-08T14:07:33;20.80;99.90
30300;DHT22;17110;52.602;12.998;2023-08-08T14:10:00;20.80;99.90
30300;DHT22;17110;52.602;12.998;2023-08-08T14:12:26;20.80;99.90
30300;DHT22;17110;52.602;12.998;2023-08-08T14:14:52;21.10;99.90
30300;DHT22;17110;52.602;12.998;2023-08-08T14:17:17;21.20;99.90
30300;DHT22;17110;52.602;12.998;2023-08-08T14:19:43;21.10;99.90
30300;DHT22;17110;52.602;12.998;2023-08-08T14:22:09;21.50;99.90
30300;DHT22;17110;52.602;12.998;2023-08-08T14:24:34;21.50;99.90
30300;DHT22;17110;52.602;12.998;2023-08-08T14:27:01;20.20;99.90
30300;DHT22;17110;52.602;12.998;2023-08-08T14:29:27;19.40;99.90
30300;DHT22;17110;52.602;12.998;2023-08-08T14:31:53;18.80;99.90
30300;DHT22;17110;52.602;12.998;2023-08-08T14:34:18;18.10;99.90
30300;DHT22;17110;52.602;12.998;2023-08-08T14:36:44;17.80;99.90
30300;DHT22;17110;52.602;12.998;2023-08-08T14:39:10;17.40;99.90
30300;DHT22;17110;52.602;12.998;2023-08-08T14:41:36;17.10;99.90
30300;DHT22;17110;52.602;12.998;2023-08-08T14:44:03;17.20;99.90
30300;DHT22;17110;52.602;12.998;2023-08-08T14:46:29;17.20;99.90
30300;DHT22;17110;52.602;12.998;2023-08-08T14:48:54;17.10;99.90
30300;DHT22;17110;52.602;12.998;2023-08-08T14:51:20;17.20;99.90
30300;DHT22;17110;52.602;12.998;2023-08-08T14:53:46;17.30;99.90
30300;DHT22;17110;52.602;12.998;2023-08-08T14:56:11;17.20;99.90
30300;DHT22;17110;52.602;12.998;2023-08-08T14:58:37;17.30;99.90
30300;DHT22;17110;52.602;12.998;2023-08-08T15:01:04;17.30;99.90
30300;DHT22;17110;52.602;12.998;2023-08-08T15:03:30;17.40;99.90
30300;DHT22;17110;52.602;12.998;2023-08-08T15:05:56;17.40;99.90
30300;DHT22;17110;52.602;12.998;2023-08-08T15:08:21;17.00;99.90
30300;DHT22;17110;52.602;12.998;2023-08-08T15:10:47;15.60;99.90